Time;durP1;ratioP1;P1;durP2;ratioP2;P2;SDS_P1;SDS_P2;PMS_P1;PMS_P2;Temp;Humidity;BMP_temperature;BMP_pressure;BME280_temperature;BME280_humidity;BME280_pressure;Samples;Min_cycle;Max_cycle;Signal;HPM_P1;HPM_P2
2023/07/07 00:00:34;;;;;;;3.78;1.70;;;;;;;-145.41;100.00;58600.66;5039788;28;20515;-72
2023/07/07 00:02:59;;;;;;;3.33;1.73;;;;;;;-145.41;100.00;58600.66;5039160;28;20033;-72
2023/07/07 00:05:25;;;;;;;5.55;2.00;;;;;;;-145.41;100.00;58600.66;5041176;28;20033;-72
2023/07/07 00:07:50;;;;;;;3.17;1.60;;;;;;;-145.41;100.00;58600.66;5038644;28;20094;-72
2023/07/07 00:10:16;;;;;;;3.22;1.80;;;;;;;-145.41;100.00;58600.66;5044568;28;20033;-72
2023/07/07 00:12:42;;;;;;;2.90;1.70;;;;;;;-145.41;100.00;58600.66;5044670;28;20044;-72
2023/07/07 00:15:08;;;;;;;3.70;2.00;;;;;;;-145.41;100.00;58600.66;5048800;28;20483;-72
2023/07/07 00:17:33;;;;;;;3.58;1.90;;;;;;;-145.41;100.00;58600.66;5043101;28;20041;-72
2023/07/07 00:20:03;;;;;;;4.45;2.00;;;;;;;-145.41;100.00;58600.66;5045720;28;20079;-72
2023/07/07 00:22:31;;;;;;;5.25;1.55;;;;;;;-145.41;100.00;58600.66;5042600;28;20104;-72
2023/07/07 00:24:56;;;;;;;3.00;1.70;;;;;;;-145.41;100.00;58600.66;5040019;28;20029;-72
2023/07/07 00:27:22;;;;;;;4.18;1.90;;;;;;;-145.41;100.00;58600.66;5038617;28;20063;-72
2023/07/07 00:29:47;;;;;;;3.50;1.80;;;;;;;-145.41;100.00;58600.66;5041449;28;20060;-72
2023/07/07 00:32:12;;;;;;;3.72;1.88;;;;;;;-145.41;100.00;58600.66;5042094;28;20108;-72
2023/07/07 00:34:38;;;;;;;3.58;1.88;;;;;;;-145.41;100.00;58600.66;5042887;28;20502;-72
2023/07/07 00:37:03;;;;;;;4.22;1.77;;;;;;;-145.41;100.00;58600.66;5039816;28;20510;-72
2023/07/07 00:39:29;;;;;;;3.45;2.00;;;;;;;-145.41;100.00;58600.66;5046601;28;20492;-73
2023/07/07 00:41:56;;;;;;;4.80;2.05;;;;;;;-145.41;100.00;58600.66;5042357;28;20491;-73
2023/07/07 00:44:28;;;;;;;4.22;1.80;;;;;;;-145.41;100.00;58600.66;5042641;28;20028;-72
2023/07/07 00:46:54;;;;;;;4.75;2.17;;;;;;;-145.41;100.00;58600.66;5044664;28;20044;-72
2023/07/07 00:49:21;;;;;;;4.00;2.00;;;;;;;-145.41;100.00;58600.66;5038337;28;20040;-72
2023/07/07 00:51:50;;;;;;;3.55;1.92;;;;;;;-145.41;100.00;58600.66;5038663;28;20068;-72
2023/07/07 00:54:23;;;;;;;3.55;1.70;;;;;;;-145.41;100.00;58600.66;5042321;28;20036;-72
2023/07/07 00:56:51;;;;;;;3.17;2.00;;;;;;;-145.41;100.00;58600.66;5045937;28;20028;-72
2023/07/07 00:59:24;;;;;;;5.05;2.58;;;;;;;-145.41;100.00;58600.66;5041977;28;20036;-72
2023/07/07 01:01:55;;;;;;;5.75;1.90;;;;;;;-145.41;100.00;58600.66;5037885;28;20513;-72
2023/07/07 01:04:23;;;;;;;3.92;2.10;;;;;;;-145.41;100.00;58600.66;5037427;28;20033;-72
2023/07/07 01:06:54;;;;;;;3.88;2.00;;;;;;;-145.41;100.00;58600.66;5041176;28;20159;-72
2023/07/07 01:09:19;;;;;;;3.28;2.00;;;;;;;-145.41;100.00;58600.66;5037454;28;20036;-72
2023/07/07 01:11:46;;;;;;;4.13;1.88;;;;;;;-145.41;100.00;58600.66;5040248;28;20029;-72
2023/07/07 01:14:31;;;;;;;3.20;1.70;;;;;;;-145.41;100.00;58600.66;5041123;28;20115;-73
2023/07/07 01:17:36;;;;;;;3.08;1.70;;;;;;;-145.41;100.00;58600.66;5040237;28;20098;-72
2023/07/07 01:20:18;;;;;;;3.75;2.03;;;;;;;-145.41;100.00;58600.66;5033717;28;20037;-72
2023/07/07 01:23:05;;;;;;;5.57;2.83;;;;;;;-145.41;100.00;58600.66;5048917;28;20082;-72
2023/07/07 01:25:43;;;;;;;4.53;2.40;;;;;;;-145.41;100.00;58600.66;5036457;28;20052;-71
2023/07/07 01:28:31;;;;;;;4.93;2.33;;;;;;;-145.41;100.00;58600.66;5047588;28;20037;-72
2023/07/07 01:31:01;;;;;;;3.25;2.03;;;;;;;-145.41;100.00;58600.66;5029915;28;20144;-72
2023/07/07 01:33:30;;;;;;;3.47;2.08;;;;;;;-145.41;100.00;58600.66;5041730;28;20041;-72
2023/07/07 01:35:55;;;;;;;4.60;2.17;;;;;;;-145.41;100.00;58600.66;5039229;28;20029;-72
2023/07/07 01:38:48;;;;;;;4.15;2.47;;;;;;;-145.41;100.00;58600.66;5044552;28;20553;-72
2023/07/07 01:41:20;;;;;;;3.95;2.00;;;;;;;-145.41;100.00;58600.66;5041455;28;20049;-72
2023/07/07 01:43:49;;;;;;;5.25;2.15;;;;;;;-145.41;100.00;58600.66;5038893;28;20064;-72
2023/07/07 01:46:26;;;;;;;3.08;1.98;;;;;;;-145.41;100.00;58600.66;5041833;28;20048;-73
2023/07/07 01:48:58;;;;;;;4.72;2.63;;;;;;;-145.41;100.00;58600.66;5043437;28;20040;-72
2023/07/07 01:51:28;;;;;;;4.97;2.72;;;;;;;-145.41;100.00;58600.66;5037926;28;20076;-72
2023/07/07 01:53:55;;;;;;;4.53;2.78;;;;;;;-145.41;100.00;58600.66;5041958;28;20052;-73
2023/07/07 01:56:25;;;;;;;5.38;2.58;;;;;;;-145.41;100.00;58600.66;5044866;28;20029;-72
2023/07/07 01:58:51;;;;;;;3.97;2.13;;;;;;;-145.41;100.00;58600.66;5040427;28;20485;-72
2023/07/07 02:01:18;;;;;;;4.38;2.63;;;;;;;-145.41;100.00;58600.66;5042862;28;20068;-73
2023/07/07 02:03:44;;;;;;;3.58;2.17;;;;;;;-145.41;100.00;58600.66;5044383;28;20033;-73
2023/07/07 02:06:09;;;;;;;3.20;1.92;;;;;;;-145.41;100.00;58600.66;5042347;28;20513;-74
2023/07/07 02:08:36;;;;;;;4.05;2.33;;;;;;;-145.41;100.00;58600.66;5038785;28;20057;-73
2023/07/07 02:11:03;;;;;;;3.80;2.38;;;;;;;-145.41;100.00;58600.66;5040522;28;20104;-73
2023/07/07 02:13:28;;;;;;;4.35;2.85;;;;;;;-145.41;100.00;58600.66;5038476;28;20491;-73
2023/07/07 02:15:53;;;;;;;3.63;2.38;;;;;;;-145.41;100.00;58600.66;5046169;28;20029;-71
2023/07/07 02:18:20;;;;;;;4.22;2.33;;;;;;;-145.41;100.00;58600.66;5039102;28;20037;-71
2023/07/07 02:20:45;;;;;;;4.32;2.40;;;;;;;-145.41;100.00;58600.66;5042299;28;20036;-71
2023/07/07 02:23:10;;;;;;;3.53;2.30;;;;;;;-145.41;100.00;58600.66;5044355;28;20029;-72
2023/07/07 02:25:36;;;;;;;6.28;2.58;;;;;;;-145.41;100.00;58600.66;5041460;28;20043;-71
2023/07/07 02:28:03;;;;;;;4.72;2.58;;;;;;;-145.41;100.00;58600.66;5037318;28;20464;-71
2023/07/07 02:30:28;;;;;;;3.78;2.58;;;;;;;-145.41;100.00;58600.66;5042844;28;20108;-71
2023/07/07 02:32:54;;;;;;;4.13;2.95;;;;;;;-145.41;100.00;58600.66;5042317;28;20431;-71
2023/07/07 02:35:19;;;;;;;3.75;2.30;;;;;;;-145.41;100.00;58600.66;5040984;28;20086;-70
2023/07/07 02:37:45;;;;;;;3.33;2.05;;;;;;;-145.41;100.00;58600.66;5033459;28;20099;-71
2023/07/07 02:40:10;;;;;;;6.13;2.53;;;;;;;-145.41;100.00;58600.66;5042023;28;20033;-71
2023/07/07 02:42:36;;;;;;;3.90;2.42;;;;;;;-145.41;100.00;58600.66;5038953;28;20101;-71
2023/07/07 02:45:02;;;;;;;4.70;2.72;;;;;;;-145.41;100.00;58600.66;5044679;28;20032;-71
2023/07/07 02:47:28;;;;;;;5.20;2.55;;;;;;;-145.41;100.00;58600.66;5039391;28;20484;-71
2023/07/07 02:49:54;;;;;;;3.83;2.40;;;;;;;-145.41;100.00;58600.66;5041770;28;20079;-71
2023/07/07 02:52:20;;;;;;;4.25;2.22;;;;;;;-145.41;100.00;58600.66;5045709;28;20029;-71
2023/07/07 02:54:45;;;;;;;5.97;2.50;;;;;;;-145.41;100.00;58600.66;5039569;28;20035;-71
2023/07/07 02:57:10;;;;;;;3.85;2.28;;;;;;;-145.41;100.00;58600.66;5044624;28;20075;-71
2023/07/07 02:59:36;;;;;;;5.07;2.47;;;;;;;-145.41;100.00;58600.66;5035385;28;20079;-71
2023/07/07 03:02:01;;;;;;;4.30;2.28;;;;;;;-145.41;100.00;58600.66;5041462;28;20059;-70
2023/07/07 03:04:27;;;;;;;4.93;3.30;;;;;;;-145.41;100.00;58600.66;5041272;28;20037;-71
2023/07/07 03:06:53;;;;;;;8.05;3.53;;;;;;;-145.41;100.00;58600.66;5036750;28;20041;-71
2023/07/07 03:09:19;;;;;;;4.15;2.63;;;;;;;-145.41;100.00;58600.66;5037032;28;20021;-71
2023/07/07 03:11:46;;;;;;;5.57;3.17;;;;;;;-145.41;100.00;58600.66;5034953;28;20025;-71
2023/07/07 03:14:16;;;;;;;5.38;3.50;;;;;;;-145.41;100.00;58600.66;5033752;28;20041;-71
2023/07/07 03:16:46;;;;;;;4.68;2.67;;;;;;;-145.41;100.00;58600.66;5034053;28;20579;-71
2023/07/07 03:19:13;;;;;;;5.57;2.88;;;;;;;-145.41;100.00;58600.66;5039551;28;20079;-71
2023/07/07 03:21:56;;;;;;;4.53;2.80;;;;;;;-145.41;100.00;58600.66;5039714;28;20037;-71
2023/07/07 03:24:54;;;;;;;3.92;2.55;;;;;;;-145.41;100.00;58600.66;5042282;28;20047;-71
2023/07/07 03:27:28;;;;;;;6.35;3.38;;;;;;;-145.41;100.00;58600.66;5029624;28;20025;-72
2023/07/07 03:29:55;;;;;;;5.50;3.25;;;;;;;-145.41;100.00;58600.66;5039614;28;20030;-71
2023/07/07 03:32:21;;;;;;;4.90;2.95;;;;;;;-145.41;100.00;58600.66;5033761;28;20432;-71
2023/07/07 03:34:49;;;;;;;4.95;3.05;;;;;;;-145.41;100.00;58600.66;5040211;28;20037;-71
2023/07/07 03:37:16;;;;;;;5.13;3.38;;;;;;;-145.41;100.00;58600.66;5037520;28;20029;-71
2023/07/07 03:39:42;;;;;;;7.03;3.20;;;;;;;-145.41;100.00;58600.66;5035914;28;20478;-71
2023/07/07 03:42:08;;;;;;;6.50;3.63;;;;;;;-145.41;100.00;58600.66;5041479;28;20028;-71
2023/07/07 03:44:35;;;;;;;9.25;4.03;;;;;;;-145.41;100.00;58600.66;5037173;28;20047;-71
2023/07/07 03:47:01;;;;;;;4.65;3.00;;;;;;;-145.41;100.00;58600.66;5036819;28;20480;-71
2023/07/07 03:49:26;;;;;;;5.72;3.35;;;;;;;-145.41;100.00;58600.66;5039185;28;20117;-72
2023/07/07 03:51:52;;;;;;;8.38;3.35;;;;;;;-145.41;100.00;58600.66;5035072;28;20048;-71
2023/07/07 03:54:17;;;;;;;7.47;3.65;;;;;;;-145.41;100.00;58600.66;5037391;28;20071;-71
2023/07/07 03:56:44;;;;;;;4.85;3.00;;;;;;;-145.41;100.00;58600.66;5039605;28;20483;-72
2023/07/07 03:59:09;;;;;;;5.65;3.53;;;;;;;-145.41;100.00;58600.66;5033040;28;20029;-72
2023/07/07 04:01:35;;;;;;;5.88;4.05;;;;;;;-145.41;100.00;58600.66;5037311;28;20399;-72
2023/07/07 04:04:00;;;;;;;6.28;3.35;;;;;;;-145.41;100.00;58600.66;5045193;28;20419;-73
2023/07/07 04:06:25;;;;;;;5.15;3.17;;;;;;;-145.41;100.00;58600.66;5032834;28;20042;-72
2023/07/07 04:08:51;;;;;;;4.75;2.92;;;;;;;-145.41;100.00;58600.66;5037348;28;20028;-73
2023/07/07 04:11:19;;;;;;;7.18;3.85;;;;;;;-145.41;100.00;58600.66;5044793;28;20399;-72
2023/07/07 04:13:46;;;;;;;6.85;4.40;;;;;;;-145.41;100.00;58600.66;5031979;28;20057;-74
2023/07/07 04:16:15;;;;;;;5.35;4.03;;;;;;;-145.41;100.00;58600.66;5033920;28;20029;-72
2023/07/07 04:18:42;;;;;;;7.10;3.40;;;;;;;-145.41;100.00;58600.66;5042347;28;20044;-72
2023/07/07 04:21:11;;;;;;;6.20;3.60;;;;;;;-145.41;100.00;58600.66;5033563;28;20045;-73
2023/07/07 04:23:39;;;;;;;5.63;3.85;;;;;;;-145.41;100.00;58600.66;5038391;28;20112;-72
2023/07/07 04:26:05;;;;;;;6.93;3.53;;;;;;;-145.41;100.00;58600.66;5028587;28;20036;-73
2023/07/07 04:28:31;;;;;;;6.30;3.25;;;;;;;-145.41;100.00;58600.66;5031883;28;20554;-73
2023/07/07 04:30:58;;;;;;;5.82;3.38;;;;;;;-145.41;100.00;58600.66;5036302;28;20033;-73
2023/07/07 04:33:26;;;;;;;6.10;3.33;;;;;;;-145.41;100.00;58600.66;5031597;28;20048;-73
2023/07/07 04:35:56;;;;;;;5.97;3.83;;;;;;;-145.41;100.00;58600.66;5036391;28;20065;-74
2023/07/07 04:38:30;;;;;;;7.30;4.45;;;;;;;-145.41;100.00;58600.66;5040174;28;20032;-74
2023/07/07 04:41:10;;;;;;;6.15;4.47;;;;;;;-145.41;100.00;58600.66;5032952;28;20025;-73
2023/07/07 04:43:38;;;;;;;5.03;3.67;;;;;;;-145.41;100.00;58600.66;5033831;28;20033;-73
2023/07/07 04:46:05;;;;;;;7.90;3.72;;;;;;;-145.41;100.00;58600.66;5039850;28;20040;-74
2023/07/07 04:48:31;;;;;;;7.57;3.58;;;;;;;-145.41;100.00;58600.66;5037630;28;20041;-73
2023/07/07 04:51:07;;;;;;;6.30;3.58;;;;;;;-145.41;100.00;58600.66;5033706;28;20427;-74
2023/07/07 04:53:32;;;;;;;6.93;4.00;;;;;;;-145.41;100.00;58600.66;5030468;28;20045;-73
2023/07/07 04:55:59;;;;;;;5.65;3.80;;;;;;;-145.41;100.00;58600.66;5029259;28;20043;-73
2023/07/07 04:58:26;;;;;;;5.45;4.03;;;;;;;-145.41;100.00;58600.66;5041511;28;20034;-73
2023/07/07 05:00:53;;;;;;;5.00;3.35;;;;;;;-145.41;100.00;58600.66;5048502;28;20087;-73
2023/07/07 05:03:18;;;;;;;14.20;10.90;;;;;;;-145.41;100.00;58600.66;5036757;28;20025;-73
2023/07/07 05:05:43;;;;;;;9.90;7.50;;;;;;;-145.41;100.00;58600.66;5042816;28;20048;-73
2023/07/07 05:08:09;;;;;;;8.48;6.10;;;;;;;-145.41;100.00;58600.66;5040539;28;20068;-73
2023/07/07 05:10:34;;;;;;;8.73;4.82;;;;;;;-145.41;100.00;58600.66;5044743;28;20084;-73
2023/07/07 05:12:59;;;;;;;6.93;3.58;;;;;;;-145.41;100.00;58600.66;5039118;28;20063;-73
2023/07/07 05:15:25;;;;;;;6.43;3.80;;;;;;;-145.41;100.00;58600.66;5044196;28;20059;-73
2023/07/07 05:17:51;;;;;;;5.75;3.80;;;;;;;-145.41;100.00;58600.66;5045586;28;20036;-73
2023/07/07 05:20:16;;;;;;;6.47;4.30;;;;;;;-145.41;100.00;58600.66;5039864;28;20051;-73
2023/07/07 05:22:42;;;;;;;5.28;4.25;;;;;;;-145.41;100.00;58600.66;5043391;28;20036;-73
2023/07/07 05:25:07;;;;;;;6.90;5.22;;;;;;;-145.41;100.00;58600.66;5037981;28;20112;-73
2023/07/07 05:27:32;;;;;;;7.55;5.00;;;;;;;-145.41;100.00;58600.66;5040441;28;20109;-73
2023/07/07 05:29:58;;;;;;;8.48;5.60;;;;;;;-145.41;100.00;58600.66;5039977;28;20043;-73
2023/07/07 05:32:23;;;;;;;10.70;7.55;;;;;;;-145.41;100.00;58600.66;5039731;28;20045;-73
2023/07/07 05:34:51;;;;;;;9.10;6.90;;;;;;;-145.41;100.00;58600.66;5037708;28;20123;-73
2023/07/07 05:37:17;;;;;;;13.20;8.55;;;;;;;-145.41;100.00;58600.66;5041022;28;20045;-73
2023/07/07 05:39:42;;;;;;;10.25;7.13;;;;;;;-145.41;100.00;58600.66;5041404;28;20045;-73
2023/07/07 05:42:07;;;;;;;9.07;7.07;;;;;;;-145.41;100.00;58600.66;5040613;28;20040;-73
2023/07/07 05:44:36;;;;;;;10.30;5.68;;;;;;;-145.41;100.00;58600.66;5046175;28;20037;-73
2023/07/07 05:47:01;;;;;;;6.30;4.75;;;;;;;-145.41;100.00;58600.66;5038810;28;20424;-73
2023/07/07 05:49:26;;;;;;;7.20;4.50;;;;;;;-145.41;100.00;58600.66;5033956;28;20040;-73
2023/07/07 05:51:52;;;;;;;8.30;5.20;;;;;;;-145.41;100.00;58600.66;5040518;28;20545;-73
2023/07/07 05:54:17;;;;;;;6.20;4.25;;;;;;;-145.41;100.00;58600.66;5035494;28;20041;-73
2023/07/07 05:56:42;;;;;;;6.30;4.60;;;;;;;-145.41;100.00;58600.66;5042029;28;20045;-73
2023/07/07 05:59:08;;;;;;;9.15;4.32;;;;;;;-145.41;100.00;58600.66;5046971;28;20045;-73
2023/07/07 06:01:35;;;;;;;8.23;6.30;;;;;;;-145.41;100.00;58600.66;5038285;28;20431;-73
2023/07/07 06:04:00;;;;;;;7.45;5.05;;;;;;;-145.41;100.00;58600.66;5039721;28;20041;-73
2023/07/07 06:06:26;;;;;;;7.43;4.95;;;;;;;-145.41;100.00;58600.66;5042849;28;20045;-73
2023/07/07 06:08:51;;;;;;;7.40;4.18;;;;;;;-145.41;100.00;58600.66;5036185;28;20037;-73
2023/07/07 06:11:16;;;;;;;6.97;4.28;;;;;;;-145.41;100.00;58600.66;5043135;28;20114;-73
2023/07/07 06:13:42;;;;;;;10.38;6.07;;;;;;;-145.41;100.00;58600.66;5047128;28;20041;-73
2023/07/07 06:16:07;;;;;;;10.85;7.00;;;;;;;-145.41;100.00;58600.66;5037534;28;20029;-73
2023/07/07 06:18:33;;;;;;;7.50;5.85;;;;;;;-145.41;100.00;58600.66;5043504;28;20026;-73
2023/07/07 06:21:01;;;;;;;7.13;5.28;;;;;;;-145.41;100.00;58600.66;5047607;28;20404;-73
2023/07/07 06:23:28;;;;;;;13.43;7.35;;;;;;;-145.41;100.00;58600.66;5042086;28;20404;-73
2023/07/07 06:25:53;;;;;;;57.53;12.93;;;;;;;-145.41;100.00;58600.66;5047003;28;20455;-73
2023/07/07 06:28:19;;;;;;;38.42;9.57;;;;;;;-145.41;100.00;58600.66;5037246;28;20036;-73
2023/07/07 06:30:49;;;;;;;12.20;6.25;;;;;;;-145.41;100.00;58600.66;5042397;28;20033;-73
2023/07/07 06:33:15;;;;;;;7.75;6.38;;;;;;;-145.41;100.00;58600.66;5041026;28;20029;-73
2023/07/07 06:35:42;;;;;;;5.97;3.97;;;;;;;-145.41;100.00;58600.66;5034993;28;20067;-73
2023/07/07 06:38:08;;;;;;;13.77;7.55;;;;;;;-145.41;100.00;58600.66;5035673;28;20106;-73
2023/07/07 06:40:34;;;;;;;12.50;7.47;;;;;;;-145.41;100.00;58600.66;5034710;28;20643;-73
2023/07/07 06:43:03;;;;;;;7.63;5.93;;;;;;;-145.41;100.00;58600.66;5030988;28;20484;-73
2023/07/07 06:45:31;;;;;;;6.25;4.78;;;;;;;-145.41;100.00;58600.66;5026271;28;20064;-74
2023/07/07 06:47:57;;;;;;;5.05;3.40;;;;;;;-145.41;100.00;58600.66;5033961;28;20025;-74
2023/07/07 06:50:31;;;;;;;7.28;5.13;;;;;;;-145.41;100.00;58600.66;5038292;28;20094;-74
2023/07/07 06:52:56;;;;;;;6.50;5.22;;;;;;;-145.41;100.00;58600.66;5043225;28;20034;-74
2023/07/07 06:55:22;;;;;;;6.30;4.95;;;;;;;-145.41;100.00;58600.66;5036246;28;20040;-74
2023/07/07 06:57:47;;;;;;;7.00;5.40;;;;;;;-145.41;100.00;58600.66;5038358;28;20087;-74
2023/07/07 07:00:13;;;;;;;7.57;5.35;;;;;;;-145.41;100.00;58600.66;5036107;28;20036;-74
2023/07/07 07:02:39;;;;;;;7.75;5.55;;;;;;;-145.41;100.00;58600.66;5033753;28;20045;-75
2023/07/07 07:05:05;;;;;;;14.38;8.07;;;;;;;-145.41;100.00;58600.66;5039918;28;20056;-74
2023/07/07 07:07:31;;;;;;;10.02;5.47;;;;;;;-145.41;100.00;58600.66;5042054;28;20037;-75
2023/07/07 07:09:56;;;;;;;7.38;5.88;;;;;;;-145.41;100.00;58600.66;5036841;28;20104;-74
2023/07/07 07:12:25;;;;;;;7.80;5.00;;;;;;;-145.41;100.00;58600.66;5040615;28;20158;-75
2023/07/07 07:15:18;;;;;;;6.70;4.15;;;;;;;-145.41;100.00;58600.66;5039261;28;20048;-75
2023/07/07 07:17:52;;;;;;;6.45;3.70;;;;;;;-145.41;100.00;58600.66;5023640;28;20076;-74
2023/07/07 07:20:21;;;;;;;5.20;3.83;;;;;;;-145.41;100.00;58600.66;5024753;28;20033;-75
2023/07/07 07:22:47;;;;;;;5.18;3.33;;;;;;;-145.41;100.00;58600.66;5040689;28;20469;-75
2023/07/07 07:25:13;;;;;;;5.95;4.40;;;;;;;-145.41;100.00;58600.66;5036408;28;20537;-75
2023/07/07 07:27:38;;;;;;;5.57;3.22;;;;;;;-145.41;100.00;58600.66;5043345;28;20064;-75
2023/07/07 07:30:07;;;;;;;4.20;2.55;;;;;;;-145.41;100.00;58600.66;5041685;28;20087;-75
2023/07/07 07:32:32;;;;;;;6.00;3.20;;;;;;;-145.41;100.00;58600.66;5036079;28;20628;-74
2023/07/07 07:34:57;;;;;;;4.72;2.83;;;;;;;-145.41;100.00;58600.66;5039486;28;20068;-73
2023/07/07 07:37:23;;;;;;;5.18;4.20;;;;;;;-145.41;100.00;58600.66;5034496;28;20037;-74
2023/07/07 07:39:49;;;;;;;11.25;3.67;;;;;;;-145.41;100.00;58600.66;5037612;28;20102;-74
2023/07/07 07:42:14;;;;;;;11.57;6.38;;;;;;;-145.41;100.00;58600.66;5044505;28;20068;-74
2023/07/07 07:44:39;;;;;;;12.95;7.68;;;;;;;-145.41;100.00;58600.66;5039694;28;20033;-74
2023/07/07 07:47:05;;;;;;;10.00;5.55;;;;;;;-145.41;100.00;58600.66;5037899;28;20033;-74
2023/07/07 07:49:31;;;;;;;4.97;3.70;;;;;;;-145.41;100.00;58600.66;5044917;28;20395;-74
2023/07/07 07:51:56;;;;;;;7.22;4.88;;;;;;;-145.41;100.00;58600.66;5039532;28;20037;-74
2023/07/07 07:54:23;;;;;;;5.70;3.50;;;;;;;-145.41;100.00;58600.66;5037853;28;20037;-74
2023/07/07 07:56:48;;;;;;;9.05;5.88;;;;;;;-145.41;100.00;58600.66;5036678;28;20618;-74
2023/07/07 07:59:13;;;;;;;9.88;4.85;;;;;;;-145.41;100.00;58600.66;5039529;28;20037;-74
2023/07/07 08:01:39;;;;;;;5.65;3.15;;;;;;;-145.41;100.00;58600.66;5038664;28;20530;-75
2023/07/07 08:04:08;;;;;;;7.30;5.13;;;;;;;-145.41;100.00;58600.66;5043061;28;20132;-74
2023/07/07 08:06:34;;;;;;;6.68;4.95;;;;;;;-145.41;100.00;58600.66;5026709;28;20432;-75
2023/07/07 08:09:03;;;;;;;8.60;3.72;;;;;;;-145.41;100.00;58600.66;5040446;28;20021;-75
2023/07/07 08:11:40;;;;;;;4.55;3.03;;;;;;;-145.41;100.00;58600.66;5047600;28;20119;-75
2023/07/07 08:14:09;;;;;;;5.28;3.47;;;;;;;-145.41;100.00;58600.66;5035968;28;20119;-74
2023/07/07 08:16:35;;;;;;;5.63;3.00;;;;;;;-145.41;100.00;58600.66;5043484;28;20041;-74
2023/07/07 08:19:00;;;;;;;5.15;3.13;;;;;;;-145.41;100.00;58600.66;5041939;28;20060;-74
2023/07/07 08:21:25;;;;;;;6.65;3.47;;;;;;;-145.41;100.00;58600.66;5037035;28;20044;-75
2023/07/07 08:23:51;;;;;;;5.28;2.53;;;;;;;-145.41;100.00;58600.66;5041528;28;20029;-75
2023/07/07 08:26:16;;;;;;;7.88;5.10;;;;;;;-145.41;100.00;58600.66;5037489;28;20092;-74
2023/07/07 08:28:41;;;;;;;4.55;3.10;;;;;;;-145.41;100.00;58600.66;5036170;28;20037;-75
2023/07/07 08:31:07;;;;;;;6.28;4.63;;;;;;;-145.41;100.00;58600.66;5047552;28;20025;-74
2023/07/07 08:33:32;;;;;;;7.10;3.53;;;;;;;-145.41;100.00;58600.66;5043738;28;20061;-74
2023/07/07 08:35:57;;;;;;;7.22;3.15;;;;;;;-145.41;100.00;58600.66;5041346;28;20426;-75
2023/07/07 08:38:23;;;;;;;6.55;3.75;;;;;;;-145.41;100.00;58600.66;5045501;28;20400;-75
2023/07/07 08:40:53;;;;;;;4.07;2.15;;;;;;;-145.41;100.00;58600.66;5042345;28;20480;-75
2023/07/07 08:43:22;;;;;;;4.93;2.50;;;;;;;-145.41;100.00;58600.66;5039382;28;20040;-75
2023/07/07 08:46:04;;;;;;;4.22;2.63;;;;;;;-145.41;100.00;58600.66;5040834;28;20964;-75
2023/07/07 08:49:07;;;;;;;4.78;2.80;;;;;;;-145.41;100.00;58600.66;5037798;28;20061;-75
2023/07/07 08:51:49;;;;;;;6.35;3.67;;;;;;;-145.41;100.00;58600.66;5043096;28;20036;-75
2023/07/07 08:54:21;;;;;;;4.85;3.00;;;;;;;-145.41;100.00;58600.66;5041408;28;20120;-74
2023/07/07 08:57:02;;;;;;;5.32;3.50;;;;;;;-145.41;100.00;58600.66;5039352;28;20044;-75
2023/07/07 08:59:38;;;;;;;4.03;2.00;;;;;;;-145.41;100.00;58600.66;5048812;28;20064;-75
2023/07/07 09:02:25;;;;;;;4.28;2.05;;;;;;;-145.41;100.00;58600.66;5034217;28;20112;-75
2023/07/07 09:05:35;;;;;;;6.35;4.05;;;;;;;-145.41;100.00;58600.66;5040053;28;20035;-75
2023/07/07 09:08:27;;;;;;;3.80;1.77;;;;;;;-145.41;100.00;58600.66;5029643;28;20049;-75
2023/07/07 09:11:12;;;;;;;6.15;3.78;;;;;;;-145.41;100.00;58600.66;5044775;28;20064;-75
2023/07/07 09:13:39;;;;;;;8.82;4.40;;;;;;;-145.41;100.00;58600.66;5028954;28;20033;-75
2023/07/07 09:16:10;;;;;;;4.65;2.58;;;;;;;-145.41;100.00;58600.66;5044216;28;20044;-75
2023/07/07 09:18:42;;;;;;;3.45;1.80;;;;;;;-145.41;100.00;58600.66;5046224;28;20545;-74
2023/07/07 09:21:21;;;;;;;5.47;2.22;;;;;;;-145.41;100.00;58600.66;5033570;28;20029;-76
2023/07/07 09:23:48;;;;;;;7.40;3.22;;;;;;;-145.41;100.00;58600.66;5040492;28;20037;-75
2023/07/07 09:26:23;;;;;;;4.00;2.03;;;;;;;-145.41;100.00;58600.66;5034716;28;20485;-75
2023/07/07 09:28:53;;;;;;;6.18;3.70;;;;;;;-145.41;100.00;58600.66;5035674;28;20044;-75
2023/07/07 09:31:28;;;;;;;5.43;3.28;;;;;;;-145.41;100.00;58600.66;5044177;28;20037;-76
2023/07/07 09:33:54;;;;;;;3.63;1.45;;;;;;;-145.41;100.00;58600.66;5032990;28;20033;-75
2023/07/07 09:36:34;;;;;;;23.75;3.92;;;;;;;-145.41;100.00;58600.66;5038618;28;20059;-76
2023/07/07 09:39:07;;;;;;;4.27;2.07;;;;;;;-145.41;100.00;58600.66;5046497;28;20411;-74
2023/07/07 09:41:37;;;;;;;6.82;3.30;;;;;;;-145.41;100.00;58600.66;5033963;28;20025;-75
2023/07/07 09:44:25;;;;;;;18.80;4.40;;;;;;;-145.41;100.00;58600.66;5040353;28;20064;-74
2023/07/07 09:46:54;;;;;;;9.23;3.08;;;;;;;-145.41;100.00;58600.66;5043838;28;20038;-75
2023/07/07 09:49:33;;;;;;;4.95;2.03;;;;;;;-145.41;100.00;58600.66;5035437;28;20029;-74
2023/07/07 09:52:15;;;;;;;4.55;1.42;;;;;;;-145.41;100.00;58600.66;5039953;28;20041;-75
2023/07/07 09:54:43;;;;;;;7.47;3.60;;;;;;;-145.41;100.00;58600.66;5039579;28;20029;-75
2023/07/07 09:57:19;;;;;;;7.20;4.47;;;;;;;-145.41;100.00;58600.66;5038815;28;20033;-76
2023/07/07 09:59:49;;;;;;;3.78;1.88;;;;;;;-145.41;100.00;58600.66;5044974;28;20108;-75
2023/07/07 10:02:19;;;;;;;3.47;1.58;;;;;;;-145.41;100.00;58600.66;5038820;28;20029;-75
2023/07/07 10:04:50;;;;;;;4.10;1.40;;;;;;;-145.41;100.00;58600.66;5039676;28;20033;-75
2023/07/07 10:07:17;;;;;;;4.60;1.45;;;;;;;-145.41;100.00;58600.66;5038465;28;20029;-76
2023/07/07 10:09:43;;;;;;;4.22;1.50;;;;;;;-145.41;100.00;58600.66;5036696;28;20133;-76
2023/07/07 10:12:15;;;;;;;3.80;1.30;;;;;;;-145.41;100.00;58600.66;5038298;28;20100;-76
2023/07/07 10:14:41;;;;;;;3.08;1.40;;;;;;;-145.41;100.00;58600.66;5047207;28;20037;-75
2023/07/07 10:17:10;;;;;;;3.97;1.83;;;;;;;-145.41;100.00;58600.66;5036605;28;20415;-76
2023/07/07 10:19:50;;;;;;;4.97;2.63;;;;;;;-145.41;100.00;58600.66;5043468;28;20037;-76
2023/07/07 10:22:15;;;;;;;4.28;2.78;;;;;;;-145.41;100.00;58600.66;5042550;28;20388;-76
2023/07/07 10:24:42;;;;;;;5.22;2.42;;;;;;;-145.41;100.00;58600.66;5033166;28;20037;-76
2023/07/07 10:27:11;;;;;;;5.65;3.38;;;;;;;-145.41;100.00;58600.66;5041467;28;20108;-75
2023/07/07 10:29:41;;;;;;;4.90;2.00;;;;;;;-145.41;100.00;58600.66;5044249;28;20041;-75
2023/07/07 10:32:12;;;;;;;4.07;1.42;;;;;;;-145.41;100.00;58600.66;5037022;28;20108;-77
2023/07/07 10:34:40;;;;;;;;;;;;;;;-145.41;100.00;58600.66;5035045;28;20028;-76
2023/07/07 10:37:20;;;;;;;5.07;2.10;;;;;;;-145.41;100.00;58600.66;5041126;28;19913;-75
2023/07/07 10:39:54;;;;;;;3.90;1.70;;;;;;;-145.41;100.00;58600.66;5035402;28;20400;-75
2023/07/07 10:42:23;;;;;;;3.40;1.63;;;;;;;-145.41;100.00;58600.66;5037014;28;20029;-75
2023/07/07 10:44:49;;;;;;;4.05;1.52;;;;;;;-145.41;100.00;58600.66;5028298;28;20033;-75
2023/07/07 10:47:19;;;;;;;6.10;2.67;;;;;;;-145.41;100.00;58600.66;5043792;28;20086;-75
2023/07/07 10:49:45;;;;;;;5.28;2.72;;;;;;;-145.41;100.00;58600.66;5032892;28;20030;-76
2023/07/07 10:52:11;;;;;;;2.53;1.25;;;;;;;-145.41;100.00;58600.66;5042909;28;20477;-76
2023/07/07 10:54:49;;;;;;;6.72;2.92;;;;;;;-145.41;100.00;58600.66;5041420;28;20060;-75
2023/07/07 10:57:20;;;;;;;8.35;3.72;;;;;;;-145.41;100.00;58600.66;5036167;28;20115;-76
2023/07/07 11:00:29;;;;;;;3.95;1.60;;;;;;;-145.41;100.00;58600.66;5031485;28;20037;-73
2023/07/07 11:03:32;;;;;;;3.35;1.52;;;;;;;-145.41;100.00;58600.66;5029711;28;20025;-73
2023/07/07 11:06:22;;;;;;;2.55;1.27;;;;;;;-145.41;100.00;58600.66;5036333;28;20098;-73
2023/07/07 11:09:03;;;;;;;2.65;1.20;;;;;;;-145.41;100.00;58600.66;5038069;28;20037;-73
2023/07/07 11:11:50;;;;;;;3.72;1.52;;;;;;;-145.41;100.00;58600.66;5037014;28;20415;-73
2023/07/07 11:14:25;;;;;;;4.28;1.58;;;;;;;-145.41;100.00;58600.66;5029589;28;20032;-73
2023/07/07 11:17:18;;;;;;;3.40;1.50;;;;;;;-145.41;100.00;58600.66;5031409;28;20036;-74
2023/07/07 11:20:25;;;;;;;5.55;3.03;;;;;;;-145.41;100.00;58600.66;5040030;28;20062;-73